Pagrindinis puslapis
METAR-TAF:

METAR-TAF

Oro uostai :

Brenham Municipal Airport

Brenham, Teksasas, Jungtinės Amerikos Valstijos

platuma: 30-13-08N, ilguma: 096-22-27W, Aukštis: 94 m

Dabartinis oras

Ataskaita buvo paskelbta 19 minutes, ne 04:15 UTC
Vėjas 5 kt iš Pietryčių
Temperatūra 21°C
Drėgmė 94%
Slėgis 1014 hPa
Matomumas: 16.1 km
Su prošvaistėmis ne aukštis 3700 ft

METAR: K11R 170415Z AUTO 14005KT 10SM BKN037 21/20 A2995 RMK AO2 T02130202

Laikas: 23:34 (04:34 UTC)


TAF: trūkstamas

Orai ataskaitas ir orų prognozės (METAR, TAF).

turimą stotys yra geltonos ir raudonos taškus žemėlapyje.

Perkelti pele per norėdami pamatyti stoties vardą.

Tada spustelėkite, norėdami matyti oro stebėjimo ir prognozės.

Norėdami pakeisti žemėlapį: spustelėkite ant žalios mygtukų su juodo kryžiaus žemyn,; žalią mygtuką su brūkšneliu, jei norite nutolinti; arba žalių rodyklių gretimoms žemėlapius.


METAR-TAF: